Time;durP1;ratioP1;P1;durP2;ratioP2;P2;SDS_P1;SDS_P2;PMS_P1;PMS_P2;Temp;Humidity;BMP_temperature;BMP_pressure;BME280_temperature;BME280_humidity;BME280_pressure;Samples;Min_cycle;Max_cycle;Signal;HPM_P1;HPM_P2
2021/01/13 00:02:09;;;;;;;19.67;9.10;;;1.60;99.90;;;;;;5044977;28;20271;-66
2021/01/13 00:04:35;;;;;;;20.13;9.73;;;1.60;99.90;;;;;;5034664;28;20344;-66
2021/01/13 00:07:02;;;;;;;24.17;9.40;;;1.50;99.90;;;;;;5042203;28;20199;-65
2021/01/13 00:09:28;;;;;;;19.07;8.43;;;1.50;99.90;;;;;;5054415;28;20190;-65
2021/01/13 00:11:57;;;;;;;20.97;10.23;;;1.50;99.90;;;;;;5048042;28;20210;-65
2021/01/13 00:14:24;;;;;;;19.97;10.23;;;1.60;99.90;;;;;;5034533;28;20661;-66
2021/01/13 00:16:50;;;;;;;21.27;10.20;;;1.60;99.90;;;;;;5039106;28;20202;-65
2021/01/13 00:19:16;;;;;;;24.57;10.87;;;1.60;99.90;;;;;;5052734;28;20167;-66
2021/01/13 00:21:49;;;;;;;26.50;10.57;;;1.70;99.90;;;;;;5034566;28;20176;-65
2021/01/13 00:24:16;;;;;;;14.43;9.53;;;1.70;99.90;;;;;;5036276;28;20211;-66
2021/01/13 00:26:43;;;;;;;22.13;10.93;;;1.70;99.90;;;;;;5052439;28;20190;-65
2021/01/13 00:29:16;;;;;;;13.77;8.10;;;1.80;99.90;;;;;;5038744;28;20187;-66
2021/01/13 00:31:42;;;;;;;18.27;10.67;;;1.80;99.90;;;;;;5034239;28;20199;-65
2021/01/13 00:34:11;;;;;;;26.50;11.30;;;1.90;99.90;;;;;;5048240;28;20210;-65
2021/01/13 00:36:37;;;;;;;15.83;9.63;;;1.90;99.90;;;;;;5054002;28;20199;-65
2021/01/13 00:39:05;;;;;;;19.10;10.30;;;1.90;99.90;;;;;;5040851;28;20240;-65
2021/01/13 00:41:31;;;;;;;17.00;10.20;;;1.90;99.90;;;;;;5034062;28;20206;-65
2021/01/13 00:43:57;;;;;;;18.90;10.77;;;1.90;99.90;;;;;;5044125;28;20630;-65
2021/01/13 00:46:23;;;;;;;15.07;8.90;;;1.90;99.90;;;;;;5053743;28;20190;-65
2021/01/13 00:48:49;;;;;;;21.30;9.77;;;1.80;99.90;;;;;;5051686;28;20551;-65
2021/01/13 00:51:15;;;;;;;25.83;10.10;;;1.70;99.90;;;;;;5033896;28;20179;-65
2021/01/13 00:53:41;;;;;;;26.70;10.57;;;1.70;99.90;;;;;;5043449;28;20206;-66
2021/01/13 00:56:06;;;;;;;18.63;10.40;;;1.70;99.90;;;;;;5053585;28;20213;-65
2021/01/13 00:58:33;;;;;;;18.67;11.30;;;1.60;99.90;;;;;;5040345;28;20188;-66
2021/01/13 01:00:59;;;;;;;20.07;10.60;;;1.60;99.90;;;;;;5013925;28;20665;-65
2021/01/13 01:03:25;;;;;;;21.17;11.20;;;1.60;99.90;;;;;;5026501;28;20607;-66
2021/01/13 01:05:50;;;;;;;15.40;9.03;;;1.50;99.90;;;;;;5053530;28;20166;-65
2021/01/13 01:08:17;;;;;;;14.03;8.80;;;1.50;99.90;;;;;;5048176;28;20195;-66
2021/01/13 01:10:43;;;;;;;18.33;10.23;;;1.50;99.90;;;;;;5033655;28;20198;-65
2021/01/13 01:13:09;;;;;;;14.03;9.87;;;1.50;99.90;;;;;;5036140;28;20179;-65
2021/01/13 01:15:37;;;;;;;26.83;10.17;;;1.50;99.90;;;;;;5053207;28;20174;-66
2021/01/13 01:18:03;;;;;;;17.77;10.03;;;1.50;99.90;;;;;;5033054;28;20249;-65
2021/01/13 01:20:29;;;;;;;18.10;9.77;;;1.50;99.90;;;;;;5033417;28;20171;-66
2021/01/13 01:22:56;;;;;;;21.77;10.53;;;1.50;99.90;;;;;;5050858;28;20198;-66
2021/01/13 01:25:23;;;;;;;24.53;11.13;;;1.60;99.90;;;;;;5053140;28;20167;-66
2021/01/13 01:27:50;;;;;;;24.17;11.20;;;1.60;99.90;;;;;;5036123;28;20191;-66
2021/01/13 01:30:16;;;;;;;20.50;10.73;;;1.60;99.90;;;;;;5032992;28;20172;-66
2021/01/13 01:32:43;;;;;;;22.07;11.27;;;1.60;99.90;;;;;;5047564;28;20186;-65
2021/01/13 01:35:09;;;;;;;23.43;11.93;;;1.70;99.90;;;;;;5052982;28;20227;-65
2021/01/13 01:37:35;;;;;;;23.40;12.00;;;1.70;99.90;;;;;;5039422;28;20672;-65
2021/01/13 01:40:03;;;;;;;24.40;11.57;;;1.70;99.90;;;;;;5032956;28;20174;-65
2021/01/13 01:42:29;;;;;;;19.67;12.43;;;1.70;99.90;;;;;;5042778;28;20543;-65
2021/01/13 01:44:55;;;;;;;24.07;13.00;;;1.70;99.90;;;;;;5044877;28;20267;-65
2021/01/13 01:47:59;;;;;;;20.60;12.87;;;1.70;99.90;;;;;;5032400;28;20758;-66
2021/01/13 01:50:27;;;;;;;24.10;11.07;;;1.60;99.90;;;;;;5039774;28;20174;-65
2021/01/13 01:53:01;;;;;;;19.60;11.57;;;1.60;99.90;;;;;;5052669;28;20209;-65
2021/01/13 01:55:34;;;;;;;19.20;10.87;;;1.60;99.90;;;;;;5041432;28;20265;-65
2021/01/13 01:58:07;;;;;;;22.37;11.30;;;1.60;99.90;;;;;;5030942;28;20239;-65
2021/01/13 02:00:33;;;;;;;23.67;14.00;;;1.60;99.90;;;;;;5043044;28;20182;-65
2021/01/13 02:03:12;;;;;;;23.70;14.03;;;1.60;99.90;;;;;;5052619;28;20240;-65
2021/01/13 02:05:41;;;;;;;26.50;12.50;;;1.70;99.90;;;;;;5041180;28;21004;-66
2021/01/13 02:08:19;;;;;;;20.10;13.37;;;1.80;99.90;;;;;;5031972;28;20184;-65
2021/01/13 02:10:49;;;;;;;19.50;10.13;;;1.80;99.90;;;;;;5043300;28;20705;-65
2021/01/13 02:13:16;;;;;;;16.10;9.13;;;1.90;99.90;;;;;;5044103;28;20206;-65
2021/01/13 02:15:42;;;;;;;19.67;12.27;;;1.90;99.90;;;;;;5032229;28;20255;-65
2021/01/13 02:18:10;;;;;;;18.17;10.33;;;1.90;99.90;;;;;;5038350;28;20210;-65
2021/01/13 02:20:39;;;;;;;14.33;10.47;;;1.80;99.90;;;;;;5052082;28;20195;-65
2021/01/13 02:23:08;;;;;;;22.23;13.13;;;1.80;99.90;;;;;;5050382;28;20195;-66
2021/01/13 02:25:40;;;;;;;13.90;10.00;;;1.70;99.90;;;;;;5037498;28;20215;-65
2021/01/13 02:28:15;;;;;;;16.97;10.63;;;1.70;99.90;;;;;;5031491;28;20207;-65
2021/01/13 02:30:56;;;;;;;21.33;13.00;;;1.70;99.90;;;;;;5046171;28;20182;-65
2021/01/13 02:33:28;;;;;;;24.20;11.17;;;1.70;99.90;;;;;;5052141;28;20183;-65
2021/01/13 02:36:26;;;;;;;15.23;10.27;;;1.60;99.90;;;;;;5036072;28;20179;-65
2021/01/13 02:38:53;;;;;;;21.10;11.20;;;1.60;99.90;;;;;;5020292;28;20261;-65
2021/01/13 02:41:26;;;;;;;20.77;11.67;;;1.60;99.90;;;;;;5049854;28;20542;-65
2021/01/13 02:44:02;;;;;;;22.83;11.83;;;1.60;99.90;;;;;;5051940;28;20194;-64
2021/01/13 02:46:57;;;;;;;15.10;10.50;;;1.60;99.90;;;;;;5032499;28;20195;-65
2021/01/13 02:52:19;;;;;;;15.30;11.27;;;1.60;99.90;;;;;;5051721;28;20224;-65
2021/01/13 02:54:55;;;;;;;28.10;10.27;;;1.60;99.90;;;;;;5048126;28;20187;-64
2021/01/13 02:57:28;;;;;;;22.57;11.23;;;1.60;99.90;;;;;;5030928;28;20191;-65
2021/01/13 02:59:58;;;;;;;21.90;12.80;;;1.70;99.90;;;;;;5035506;28;20538;-65
2021/01/13 03:02:36;;;;;;;23.90;12.70;;;1.70;99.90;;;;;;5031984;28;20203;-65
2021/01/13 03:05:02;;;;;;;21.43;10.70;;;1.70;99.90;;;;;;5034576;28;20170;-65
2021/01/13 03:07:35;;;;;;;21.03;9.43;;;1.70;99.90;;;;;;5050685;28;20621;-65
2021/01/13 03:10:15;;;;;;;21.17;11.43;;;1.70;99.90;;;;;;5047410;28;20282;-65
2021/01/13 03:12:41;;;;;;;19.57;11.70;;;1.70;99.90;;;;;;5031554;28;20181;-65
2021/01/13 03:15:09;;;;;;;17.70;10.37;;;1.70;99.90;;;;;;5038492;28;20179;-67
2021/01/13 03:17:35;;;;;;;16.07;11.33;;;1.70;99.90;;;;;;5053893;28;20224;-66
2021/01/13 03:20:09;;;;;;;19.23;11.40;;;1.70;99.90;;;;;;5051374;28;20179;-67
2021/01/13 03:23:07;;;;;;;21.47;11.30;;;1.70;99.90;;;;;;5034124;28;20206;-69
2021/01/13 03:25:37;;;;;;;20.37;11.00;;;1.70;99.90;;;;;;5040820;28;20285;-66
2021/01/13 03:28:05;;;;;;;22.70;10.87;;;1.70;99.90;;;;;;5053026;28;20259;-66
2021/01/13 03:30:33;;;;;;;17.80;11.70;;;1.80;99.90;;;;;;5037069;28;20824;-67
2021/01/13 03:33:02;;;;;;;22.80;11.77;;;1.80;99.90;;;;;;5034263;28;20269;-67
2021/01/13 03:35:58;;;;;;;20.40;10.43;;;1.80;99.90;;;;;;5050224;28;20608;-66
2021/01/13 03:38:28;;;;;;;21.90;12.50;;;1.80;99.90;;;;;;5053537;28;20163;-67
2021/01/13 03:41:01;;;;;;;23.47;12.57;;;1.80;99.90;;;;;;5034660;28;20233;-66
2021/01/13 03:43:36;;;;;;;21.27;12.27;;;1.80;99.90;;;;;;5034289;28;20248;-66
2021/01/13 03:46:05;;;;;;;19.33;10.93;;;1.80;99.90;;;;;;5014865;28;20194;-67
2021/01/13 03:48:47;;;;;;;21.87;12.33;;;1.80;99.90;;;;;;5013483;28;20175;-66
2021/01/13 03:51:42;;;;;;;17.93;10.67;;;1.90;99.90;;;;;;5023805;28;20175;-65
2021/01/13 03:54:10;;;;;;;9.97;7.47;;;1.90;99.90;;;;;;5050220;28;20179;-65
2021/01/13 03:56:59;;;;;;;15.80;9.73;;;2.00;99.90;;;;;;5034483;28;20188;-65
2021/01/13 03:59:59;;;;;;;18.90;11.87;;;2.00;99.90;;;;;;5033998;28;20204;-67
2021/01/13 04:02:29;;;;;;;22.97;13.47;;;2.00;99.90;;;;;;5038382;28;20219;-65
2021/01/13 04:05:19;;;;;;;18.33;12.97;;;2.00;99.90;;;;;;5053989;28;20175;-68
2021/01/13 04:07:49;;;;;;;17.20;11.67;;;1.90;99.90;;;;;;5052188;28;20281;-67
2021/01/13 04:10:15;;;;;;;18.80;13.37;;;1.90;99.90;;;;;;5053752;28;20209;-68
2021/01/13 04:13:11;;;;;;;18.40;12.60;;;1.90;99.90;;;;;;5039422;28;20179;-66
2021/01/13 04:15:39;;;;;;;21.87;13.63;;;1.90;99.90;;;;;;5034692;28;20179;-67
2021/01/13 04:18:07;;;;;;;22.27;13.23;;;1.80;99.90;;;;;;5051228;28;20206;-68
2021/01/13 04:20:33;;;;;;;25.83;14.47;;;1.80;99.90;;;;;;5057506;28;20179;-66
2021/01/13 04:22:59;;;;;;;22.50;11.90;;;1.80;99.90;;;;;;5041333;28;20203;-66
2021/01/13 04:25:25;;;;;;;30.70;14.17;;;1.80;99.90;;;;;;5049213;28;20171;-66
2021/01/13 04:27:51;;;;;;;22.70;14.53;;;1.80;99.90;;;;;;5055193;28;20187;-66
2021/01/13 04:30:18;;;;;;;20.17;13.50;;;1.80;99.90;;;;;;5057327;28;20543;-66
2021/01/13 04:32:44;;;;;;;23.60;14.90;;;1.90;99.90;;;;;;5057119;28;20589;-65
2021/01/13 04:35:10;;;;;;;28.23;16.17;;;1.80;99.90;;;;;;5037883;28;20175;-67
2021/01/13 04:37:39;;;;;;;31.13;14.50;;;1.90;99.90;;;;;;5034787;28;20203;-66
2021/01/13 04:40:33;;;;;;;32.10;15.10;;;1.80;99.90;;;;;;5054669;28;20179;-62
2021/01/13 04:43:12;;;;;;;27.37;15.23;;;1.90;99.90;;;;;;5053653;28;20206;-62
2021/01/13 04:45:48;;;;;;;27.50;16.07;;;1.90;99.90;;;;;;5031748;28;20169;-62
2021/01/13 04:48:19;;;;;;;28.90;15.23;;;2.00;99.90;;;;;;5020198;28;20187;-61
2021/01/13 04:50:45;;;;;;;22.27;12.63;;;2.00;99.90;;;;;;5055368;28;20583;-62
2021/01/13 04:53:12;;;;;;;25.37;14.77;;;2.00;99.90;;;;;;5053192;28;20198;-64
2021/01/13 04:55:45;;;;;;;21.83;13.03;;;2.10;99.90;;;;;;5034685;28;20210;-62
2021/01/13 04:58:28;;;;;;;23.77;13.60;;;2.10;99.90;;;;;;5049686;28;20202;-62
2021/01/13 05:01:06;;;;;;;19.53;13.63;;;2.20;99.90;;;;;;5055055;28;20170;-62
2021/01/13 05:04:07;;;;;;;18.70;13.17;;;2.20;99.90;;;;;;5036740;28;20211;-62
2021/01/13 05:06:39;;;;;;;29.00;14.37;;;2.20;99.90;;;;;;5035710;28;20197;-62
2021/01/13 05:09:06;;;;;;;27.27;13.40;;;2.20;99.90;;;;;;5054791;28;20201;-62
2021/01/13 05:11:46;;;;;;;17.43;11.90;;;2.20;99.90;;;;;;5054482;28;20189;-62
2021/01/13 05:14:13;;;;;;;26.67;15.00;;;2.20;99.90;;;;;;5034701;28;20186;-62
2021/01/13 05:16:51;;;;;;;24.90;16.30;;;2.20;99.90;;;;;;5035546;28;20194;-62
2021/01/13 05:19:55;;;;;;;18.43;11.50;;;2.10;99.90;;;;;;5054628;28;20254;-62
2021/01/13 05:22:24;;;;;;;23.97;14.20;;;2.20;99.90;;;;;;5047298;28;20183;-62
2021/01/13 05:24:53;;;;;;;23.60;15.73;;;2.20;99.90;;;;;;5035135;28;20565;-62
2021/01/13 05:28:02;;;;;;;27.50;15.17;;;2.20;99.90;;;;;;5038663;28;20663;-62
2021/01/13 05:30:30;;;;;;;31.03;15.87;;;2.20;99.90;;;;;;5042733;23;20266;-64
2021/01/13 05:32:56;;;;;;;21.03;14.27;;;2.20;99.90;;;;;;5029976;28;20186;-63
2021/01/13 05:35:28;;;;;;;21.93;15.17;;;2.20;99.90;;;;;;5033030;28;20640;-63
2021/01/13 05:38:11;;;;;;;23.87;15.83;;;2.20;99.90;;;;;;5016069;28;20180;-64
2021/01/13 05:40:45;;;;;;;26.27;15.73;;;2.20;99.90;;;;;;4995433;28;20185;-64
2021/01/13 05:43:12;;;;;;;29.43;15.37;;;2.20;99.90;;;;;;5010767;28;20211;-64
2021/01/13 05:45:40;;;;;;;28.40;13.23;;;2.20;99.90;;;;;;5008281;28;20185;-64
2021/01/13 05:48:19;;;;;;;28.87;14.10;;;2.20;99.90;;;;;;4994529;28;20718;-63
2021/01/13 05:50:46;;;;;;;19.53;11.33;;;2.20;99.90;;;;;;4993428;28;20611;-64
2021/01/13 05:53:13;;;;;;;16.17;12.87;;;2.10;99.90;;;;;;4996614;28;20176;-62
2021/01/13 05:55:49;;;;;;;22.90;13.40;;;2.20;99.90;;;;;;5012970;28;20242;-64
2021/01/13 05:58:20;;;;;;;21.30;12.87;;;2.30;99.90;;;;;;5010722;28;20187;-63
2021/01/13 06:00:48;;;;;;;22.80;13.90;;;2.20;99.90;;;;;;4993463;28;20228;-62
2021/01/13 06:03:23;;;;;;;17.67;10.77;;;2.30;99.90;;;;;;5011693;28;20254;-64
2021/01/13 06:05:54;;;;;;;23.47;14.13;;;2.30;99.90;;;;;;5011182;28;20175;-63
2021/01/13 06:08:29;;;;;;;19.47;13.13;;;2.30;99.90;;;;;;5012217;28;20173;-64
2021/01/13 06:11:00;;;;;;;23.13;10.47;;;2.30;99.90;;;;;;5001084;28;20251;-64
2021/01/13 06:13:31;;;;;;;18.80;12.17;;;2.30;99.90;;;;;;4992991;28;20255;-65
2021/01/13 06:16:00;;;;;;;24.40;13.37;;;2.30;99.90;;;;;;5004237;28;20547;-64
2021/01/13 06:18:26;;;;;;;22.83;12.80;;;2.30;99.90;;;;;;5012130;28;20836;-63
2021/01/13 06:20:56;;;;;;;21.43;11.60;;;2.30;99.90;;;;;;5010907;28;20187;-61
2021/01/13 06:23:22;;;;;;;21.33;12.60;;;2.30;99.90;;;;;;5010866;28;20199;-64
2021/01/13 06:25:53;;;;;;;29.40;14.70;;;2.30;99.90;;;;;;4992807;28;20585;-64
2021/01/13 06:28:27;;;;;;;18.27;12.93;;;2.30;99.90;;;;;;4992368;28;20176;-64
2021/01/13 06:31:01;;;;;;;16.27;11.20;;;2.30;99.90;;;;;;5012278;28;20189;-63
2021/01/13 06:33:50;;;;;;;19.63;11.07;;;2.30;99.90;;;;;;4993848;28;20172;-63
2021/01/13 06:37:06;;;;;;;21.33;11.40;;;2.30;99.90;;;;;;4992433;28;20181;-63
2021/01/13 06:39:33;;;;;;;14.93;9.70;;;2.20;99.90;;;;;;5001172;28;20199;-63
2021/01/13 06:41:59;;;;;;;21.30;12.97;;;2.20;99.90;;;;;;5011518;28;20178;-64
2021/01/13 06:44:25;;;;;;;17.77;9.53;;;2.20;99.90;;;;;;5004033;28;20666;-64
2021/01/13 06:46:53;;;;;;;38.07;13.37;;;2.20;99.90;;;;;;4992293;28;20175;-64
2021/01/13 06:49:21;;;;;;;10.73;8.83;;;2.10;99.90;;;;;;5005960;28;20599;-64
2021/01/13 06:51:48;;;;;;;17.70;11.67;;;2.10;99.90;;;;;;5012131;28;20543;-64
2021/01/13 06:54:18;;;;;;;23.10;11.93;;;2.10;99.90;;;;;;4999098;28;20268;-63
2021/01/13 06:56:52;;;;;;;19.20;12.73;;;2.10;99.90;;;;;;4992333;28;20183;-63
2021/01/13 06:59:19;;;;;;;18.37;11.57;;;2.00;99.90;;;;;;5004395;28;20240;-64
2021/01/13 07:01:52;;;;;;;18.57;10.87;;;2.00;99.90;;;;;;5011941;28;20254;-64
2021/01/13 07:04:19;;;;;;;10.50;7.40;;;2.00;99.90;;;;;;5009939;28;20311;-63
2021/01/13 07:07:05;;;;;;;20.63;12.17;;;2.00;99.90;;;;;;5011727;28;20204;-62
2021/01/13 07:09:45;;;;;;;21.73;10.87;;;2.00;99.90;;;;;;4998481;28;20594;-63
2021/01/13 07:12:12;;;;;;;16.57;9.93;;;1.90;99.90;;;;;;4992367;28;20169;-64
2021/01/13 07:14:46;;;;;;;24.57;11.77;;;1.90;99.90;;;;;;5005505;28;20188;-63
2021/01/13 07:17:20;;;;;;;23.30;11.30;;;1.90;99.90;;;;;;4998658;28;20173;-64
2021/01/13 07:19:50;;;;;;;30.07;11.63;;;1.80;99.90;;;;;;4972566;28;20203;-63
2021/01/13 07:22:17;;;;;;;29.03;11.83;;;1.90;99.90;;;;;;4972263;28;20514;-63
2021/01/13 07:24:45;;;;;;;19.50;12.00;;;1.80;99.90;;;;;;5010788;28;20184;-63
2021/01/13 07:27:12;;;;;;;20.50;12.50;;;1.80;99.90;;;;;;5011177;28;20172;-63
2021/01/13 07:29:38;;;;;;;21.47;11.20;;;1.80;99.90;;;;;;4999829;28;20207;-63
2021/01/13 07:32:05;;;;;;;12.97;6.37;;;1.80;99.90;;;;;;5011511;28;20247;-64
2021/01/13 07:34:41;;;;;;;13.80;8.73;;;1.80;99.90;;;;;;4994742;28;20177;-63
2021/01/13 07:37:16;;;;;;;16.60;10.43;;;1.80;99.90;;;;;;4991618;28;20183;-64
2021/01/13 07:39:47;;;;;;;22.07;11.03;;;1.80;99.90;;;;;;5008848;28;20208;-64
2021/01/13 07:42:36;;;;;;;20.30;13.20;;;1.80;99.90;;;;;;5011299;28;20172;-64
2021/01/13 07:45:14;;;;;;;18.47;12.67;;;1.80;99.90;;;;;;4991651;28;20642;-64
2021/01/13 07:47:58;;;;;;;22.70;10.50;;;1.80;99.90;;;;;;4998702;28;20168;-64
2021/01/13 07:50:24;;;;;;;27.10;12.43;;;1.80;99.90;;;;;;5011749;28;20400;-63
2021/01/13 07:52:51;;;;;;;20.67;11.33;;;1.80;99.90;;;;;;5005068;28;20192;-61
2021/01/13 07:55:21;;;;;;;18.67;12.30;;;1.80;99.90;;;;;;4995372;28;20216;-64
2021/01/13 07:57:52;;;;;;;25.80;12.17;;;1.80;99.90;;;;;;5002195;28;20645;-63
2021/01/13 08:00:28;;;;;;;17.23;8.80;;;1.80;99.90;;;;;;5014737;28;20251;-62
2021/01/13 08:03:31;;;;;;;27.37;12.60;;;1.90;99.90;;;;;;5007267;28;20200;-63
2021/01/13 08:06:25;;;;;;;23.33;12.83;;;1.90;99.90;;;;;;4995224;28;20263;-63
2021/01/13 08:09:10;;;;;;;14.57;9.23;;;1.90;99.90;;;;;;5009268;28;20199;-63
2021/01/13 08:12:09;;;;;;;16.90;11.37;;;2.00;99.90;;;;;;5014704;28;20195;-63
2021/01/13 08:15:02;;;;;;;16.87;12.37;;;2.00;99.90;;;;;;4975505;28;20710;-61
2021/01/13 08:17:50;;;;;;;18.90;11.67;;;2.10;99.90;;;;;;4995439;28;20176;-63
2021/01/13 08:20:48;;;;;;;16.63;10.60;;;2.10;99.90;;;;;;5014363;28;20622;-64
2021/01/13 08:23:24;;;;;;;19.80;10.30;;;2.10;99.90;;;;;;5009932;28;20203;-64
2021/01/13 08:25:55;;;;;;;26.93;15.10;;;2.20;99.90;;;;;;4996681;28;20191;-64
2021/01/13 08:28:22;;;;;;;30.47;15.70;;;2.20;99.90;;;;;;4996464;28;20177;-64
2021/01/13 08:30:49;;;;;;;20.80;12.27;;;2.30;99.90;;;;;;4994811;28;20579;-65
2021/01/13 08:33:23;;;;;;;26.93;14.77;;;2.30;99.90;;;;;;5010638;28;20633;-64
2021/01/13 08:35:58;;;;;;;30.97;16.33;;;2.30;99.90;;;;;;5014993;28;20589;-65
2021/01/13 08:38:26;;;;;;;21.03;12.03;;;2.30;99.90;;;;;;4997254;28;20208;-63
2021/01/13 08:40:52;;;;;;;21.10;10.60;;;2.30;99.90;;;;;;5011776;28;20555;-63
2021/01/13 08:43:19;;;;;;;37.17;19.60;;;2.30;99.90;;;;;;4998524;28;20272;-67
2021/01/13 08:45:50;;;;;;;21.67;10.77;;;2.40;99.90;;;;;;4994342;28;20231;-64
2021/01/13 08:48:24;;;;;;;26.93;12.67;;;2.40;99.90;;;;;;5013549;28;20183;-64
2021/01/13 08:51:04;;;;;;;24.60;14.23;;;2.50;99.90;;;;;;5012195;28;20286;-63
2021/01/13 08:53:31;;;;;;;22.50;11.20;;;2.50;99.90;;;;;;4994130;28;20176;-64
2021/01/13 08:55:57;;;;;;;14.03;8.90;;;2.60;99.90;;;;;;4996392;28;20177;-63
2021/01/13 08:58:32;;;;;;;28.83;11.00;;;2.80;99.90;;;;;;5012605;28;20271;-64
2021/01/13 09:01:08;;;;;;;28.97;10.10;;;2.90;99.90;;;;;;5012335;28;20178;-64
2021/01/13 09:03:40;;;;;;;19.93;9.83;;;3.10;99.90;;;;;;4992067;28;20688;-62
2021/01/13 09:06:27;;;;;;;16.03;7.83;;;3.40;99.90;;;;;;4996324;28;20200;-62
2021/01/13 09:08:54;;;;;;;15.27;7.40;;;3.70;99.90;;;;;;5013480;28;20575;-64
2021/01/13 09:11:35;;;;;;;11.03;7.00;;;3.90;99.90;;;;;;5012072;28;20173;-64
2021/01/13 09:14:21;;;;;;;13.77;6.73;;;4.00;99.90;;;;;;5013744;28;20175;-63
2021/01/13 09:16:51;;;;;;;9.57;6.50;;;3.90;99.90;;;;;;4999260;28;20542;-63
2021/01/13 09:19:39;;;;;;;9.73;7.83;;;3.90;99.90;;;;;;4993698;28;20203;-63
2021/01/13 09:22:09;;;;;;;13.70;8.77;;;4.00;99.90;;;;;;5004581;28;20177;-63
2021/01/13 09:24:40;;;;;;;16.00;7.67;;;3.90;99.90;;;;;;4993486;28;20775;-63
2021/01/13 09:27:08;;;;;;;11.83;6.30;;;4.10;99.90;;;;;;5009121;28;20279;-64
2021/01/13 09:29:49;;;;;;;15.97;6.73;;;4.00;99.90;;;;;;5012941;28;20235;-62
2021/01/13 09:32:16;;;;;;;15.93;7.60;;;4.00;99.90;;;;;;4996509;28;20215;-64
2021/01/13 09:34:43;;;;;;;15.70;8.97;;;4.00;99.90;;;;;;4993542;28;20177;-64
2021/01/13 09:37:09;;;;;;;13.60;8.30;;;4.20;99.90;;;;;;5008392;28;20271;-64
2021/01/13 09:39:40;;;;;;;21.53;8.87;;;4.30;99.90;;;;;;5013084;28;20184;-64
2021/01/13 09:42:07;;;;;;;10.97;6.73;;;4.40;99.90;;;;;;4998936;28;20177;-64
2021/01/13 09:44:35;;;;;;;12.80;8.00;;;4.40;99.90;;;;;;5009921;28;20204;-64
2021/01/13 09:47:21;;;;;;;16.83;8.73;;;4.40;99.90;;;;;;4993175;28;20165;-64
2021/01/13 09:49:49;;;;;;;14.73;7.77;;;4.60;99.90;;;;;;4987691;28;20232;-64
2021/01/13 09:52:15;;;;;;;10.77;6.83;;;4.70;99.90;;;;;;5012854;28;20168;-64
2021/01/13 09:54:48;;;;;;;11.83;7.73;;;4.80;99.90;;;;;;5011834;28;20172;-64
2021/01/13 09:57:16;;;;;;;14.60;7.67;;;4.90;99.90;;;;;;4992912;28;20169;-64
2021/01/13 09:59:58;;;;;;;10.90;7.57;;;5.00;99.90;;;;;;4992994;28;20185;-64
2021/01/13 10:02:24;;;;;;;20.47;8.10;;;5.00;99.90;;;;;;4973467;28;20165;-64
2021/01/13 10:04:50;;;;;;;17.47;8.60;;;5.00;99.90;;;;;;4975087;28;20178;-64
2021/01/13 10:07:20;;;;;;;9.70;7.93;;;5.10;99.90;;;;;;5012551;28;20180;-64
2021/01/13 10:09:46;;;;;;;17.90;7.53;;;5.20;99.90;;;;;;5012590;28;20192;-64
2021/01/13 10:12:12;;;;;;;13.40;7.47;;;5.30;99.90;;;;;;4993174;28;20264;-64
2021/01/13 10:14:50;;;;;;;8.37;7.23;;;5.40;99.90;;;;;;4997846;28;20224;-64
2021/01/13 10:17:27;;;;;;;12.20;7.03;;;5.40;99.90;;;;;;5012111;28;20184;-64
2021/01/13 10:19:54;;;;;;;14.77;7.40;;;5.30;99.90;;;;;;5004889;28;20287;-64
2021/01/13 10:22:29;;;;;;;7.87;6.27;;;5.30;99.90;;;;;;4992468;28;20650;-64
2021/01/13 10:24:55;;;;;;;13.97;7.07;;;5.30;99.90;;;;;;4993783;28;20721;-64
2021/01/13 10:27:22;;;;;;;12.20;6.43;;;5.30;99.90;;;;;;4992415;28;20256;-64
2021/01/13 10:29:48;;;;;;;11.93;6.07;;;5.40;99.90;;;;;;4998037;28;20576;-64
2021/01/13 10:32:15;;;;;;;12.90;6.67;;;5.50;99.90;;;;;;5011467;28;20259;-64
2021/01/13 10:34:50;;;;;;;19.57;7.50;;;5.60;99.90;;;;;;4992306;28;20638;-64
2021/01/13 10:37:16;;;;;;;15.17;6.80;;;5.70;99.90;;;;;;4992583;28;20173;-64
2021/01/13 10:39:42;;;;;;;10.77;5.90;;;5.90;99.90;;;;;;5003594;28;20201;-64
2021/01/13 10:42:08;;;;;;;10.83;6.23;;;5.90;99.90;;;;;;4992711;28;20569;-65
2021/01/13 10:44:35;;;;;;;12.20;5.93;;;6.00;99.90;;;;;;4993464;28;20208;-65
2021/01/13 10:47:09;;;;;;;11.03;6.37;;;5.90;99.90;;;;;;4992994;28;20741;-64
2021/01/13 10:49:47;;;;;;;12.90;5.90;;;6.00;99.90;;;;;;5010200;28;20492;-64
2021/01/13 10:52:20;;;;;;;14.97;8.30;;;5.90;99.90;;;;;;4997409;28;20195;-64
2021/01/13 10:54:52;;;;;;;14.87;7.63;;;5.90;99.90;;;;;;5003556;28;20184;-64
2021/01/13 10:57:31;;;;;;;11.70;6.03;;;5.90;99.90;;;;;;5011444;28;20183;-64
2021/01/13 11:00:11;;;;;;;17.47;7.33;;;5.80;99.90;;;;;;5000795;28;20204;-64
2021/01/13 11:02:38;;;;;;;14.20;8.03;;;5.90;99.90;;;;;;4991770;28;20212;-63
2021/01/13 11:05:04;;;;;;;9.50;6.27;;;6.00;99.90;;;;;;4992243;28;20630;-64
2021/01/13 11:07:37;;;;;;;9.77;5.93;;;6.00;99.90;;;;;;4991405;28;20217;-63
2021/01/13 11:10:05;;;;;;;17.17;7.03;;;5.90;99.90;;;;;;4992272;28;20208;-63
2021/01/13 11:12:30;;;;;;;17.43;6.53;;;6.00;99.90;;;;;;4991642;28;20183;-64
2021/01/13 11:14:56;;;;;;;11.47;5.53;;;6.10;99.90;;;;;;4992294;28;20173;-64
2021/01/13 11:17:23;;;;;;;14.67;6.40;;;6.10;99.90;;;;;;4991502;28;20179;-64
2021/01/13 11:19:59;;;;;;;15.27;7.67;;;6.10;99.90;;;;;;4992005;28;20739;-64
2021/01/13 11:22:47;;;;;;;12.80;6.17;;;6.10;99.90;;;;;;4991782;28;20184;-64
2021/01/13 11:25:39;;;;;;;12.17;7.97;;;6.10;99.90;;;;;;4992096;28;20259;-64
2021/01/13 11:28:07;;;;;;;10.43;6.80;;;6.00;99.90;;;;;;4992764;28;20191;-63
2021/01/13 11:30:38;;;;;;;12.30;6.67;;;6.10;99.90;;;;;;4995972;28;20212;-64
2021/01/13 11:33:06;;;;;;;16.37;6.70;;;5.90;99.90;;;;;;4995954;28;20181;-64
2021/01/13 11:35:36;;;;;;;21.30;8.77;;;5.90;99.90;;;;;;4995741;28;20222;-64
2021/01/13 11:38:33;;;;;;;13.83;6.63;;;5.90;99.90;;;;;;4994998;28;20185;-64
2021/01/13 11:41:29;;;;;;;10.97;5.43;;;5.90;99.90;;;;;;4996006;28;20189;-64
2021/01/13 11:44:22;;;;;;;11.03;5.73;;;5.80;99.90;;;;;;4995660;28;20215;-64
2021/01/13 11:47:07;;;;;;;13.87;6.07;;;5.80;99.90;;;;;;4995712;28;20321;-64
2021/01/13 11:49:33;;;;;;;7.53;5.30;;;5.90;99.90;;;;;;4996358;28;20578;-64
2021/01/13 11:52:07;;;;;;;10.40;5.23;;;6.20;99.90;;;;;;4996963;28;20180;-63
2021/01/13 11:54:33;;;;;;;7.50;4.00;;;6.40;99.90;;;;;;5002220;28;20180;-64
2021/01/13 11:57:24;;;;;;;11.20;5.07;;;6.20;99.90;;;;;;5005394;28;20192;-64
2021/01/13 11:59:52;;;;;;;10.13;4.67;;;6.10;99.90;;;;;;5004552;28;20204;-65
2021/01/13 12:02:22;;;;;;;16.80;5.60;;;5.90;99.90;;;;;;5015176;28;20547;-63
2021/01/13 12:04:48;;;;;;;16.20;6.57;;;5.90;99.90;;;;;;5007688;28;20184;-64
2021/01/13 12:07:15;;;;;;;19.03;6.70;;;5.90;99.90;;;;;;4994981;28;20196;-64
2021/01/13 12:09:43;;;;;;;10.47;6.33;;;5.90;99.90;;;;;;5000363;28;20202;-64
2021/01/13 12:12:09;;;;;;;12.43;5.27;;;5.80;99.90;;;;;;5014701;28;20187;-64
2021/01/13 12:14:38;;;;;;;12.40;6.37;;;5.80;99.90;;;;;;5010382;28;20181;-64
2021/01/13 12:17:04;;;;;;;8.20;5.53;;;5.80;99.90;;;;;;4995239;28;20177;-65
2021/01/13 12:19:41;;;;;;;13.43;6.47;;;6.00;99.90;;;;;;4998611;28;20592;-65
2021/01/13 12:22:08;;;;;;;4.80;3.80;;;6.10;99.90;;;;;;5016230;28;20180;-65
2021/01/13 12:24:42;;;;;;;11.67;5.47;;;6.00;99.90;;;;;;5012682;28;21881;-65
2021/01/13 12:27:20;;;;;;;9.27;4.37;;;5.80;99.90;;;;;;4995573;28;20517;-65
2021/01/13 12:29:46;;;;;;;7.20;4.50;;;5.70;99.90;;;;;;4996481;28;20209;-64
2021/01/13 12:32:12;;;;;;;8.83;5.13;;;5.70;99.90;;;;;;4995930;28;20631;-64
2021/01/13 12:34:38;;;;;;;9.73;5.03;;;5.60;99.90;;;;;;4998589;28;20653;-65
2021/01/13 12:37:05;;;;;;;8.17;5.50;;;5.60;99.90;;;;;;5014665;28;20234;-65
2021/01/13 12:39:35;;;;;;;10.87;6.00;;;5.60;99.90;;;;;;5012000;28;20200;-65
2021/01/13 12:42:04;;;;;;;11.83;5.23;;;5.70;99.90;;;;;;4996519;28;20239;-65
2021/01/13 12:44:30;;;;;;;9.60;5.03;;;5.60;99.90;;;;;;5007231;28;20546;-65
2021/01/13 12:47:03;;;;;;;11.73;5.47;;;5.60;99.90;;;;;;5013741;28;20194;-65
2021/01/13 12:49:30;;;;;;;14.63;5.70;;;5.60;99.90;;;;;;4996029;28;20204;-64
2021/01/13 12:51:59;;;;;;;8.17;4.47;;;5.70;99.90;;;;;;4994628;28;20544;-65
2021/01/13 12:54:26;;;;;;;8.90;5.37;;;5.70;99.90;;;;;;4994672;28;20681;-64
2021/01/13 12:56:52;;;;;;;13.63;5.83;;;5.70;99.90;;;;;;5013904;28;20630;-63
2021/01/13 12:59:18;;;;;;;9.97;5.67;;;5.80;99.90;;;;;;5013656;28;20198;-64
2021/01/13 13:01:45;;;;;;;12.97;5.33;;;6.00;99.90;;;;;;4994224;28;20231;-63
2021/01/13 13:04:11;;;;;;;12.10;6.00;;;6.00;99.90;;;;;;4994071;28;20736;-63
2021/01/13 13:06:38;;;;;;;11.23;5.43;;;6.10;99.90;;;;;;5006152;28;20184;-64
2021/01/13 13:09:12;;;;;;;12.90;5.87;;;6.10;99.90;;;;;;5008995;28;20200;-64
2021/01/13 13:11:39;;;;;;;7.87;4.40;;;6.10;99.90;;;;;;4994181;28;20181;-63